Harrisburg, New York
Current Conditions -  °F | °C
As of 9:58 AM on Monday 22 Dec 2014 (Local Time) from KGTB Reporting Station
Overcast Overcast  
Wind Chill: 21°   Ceiling: 2100
Heat Index: 26°   Visibility: 10mi
Dew Point: 22°   Wind: 5mph
Humidity: 83%   Direction: 90°E
Pressure: 30.29"   Gusts: NA
Location:  43.7565°N, 75.5938°W
Report Text: KGTB 221458Z AUTO 09004KT 10SM OVC021 M03/M06 A3029 RMK AO2 SLP269 T10331058 55002
Loading
Personal Weather Stations






























Interactive Weather Map New forecast layout! Learn more

10-Day Weather Forecast

Advertisements
Track Severe Weather on mobile